sensor_id;sensor_type;location;lat;lon;timestamp;P1;durP1;ratioP1;P2;durP2;ratioP2
15012;SDS011;7603;49.432;11.418;2023-04-07T00:00:41;4.93;;;3.50;;
15012;SDS011;7603;49.432;11.418;2023-04-07T00:03:06;4.93;;;4.07;;
15012;SDS011;7603;49.432;11.418;2023-04-07T00:05:32;5.73;;;3.33;;
15012;SDS011;7603;49.432;11.418;2023-04-07T00:07:58;5.83;;;3.70;;
15012;SDS011;7603;49.432;11.418;2023-04-07T00:10:24;4.17;;;3.73;;
15012;SDS011;7603;49.432;11.418;2023-04-07T00:12:50;6.17;;;4.07;;
15012;SDS011;7603;49.432;11.418;2023-04-07T00:15:16;4.20;;;3.57;;
15012;SDS011;7603;49.432;11.418;2023-04-07T00:17:41;3.67;;;3.37;;
15012;SDS011;7603;49.432;11.418;2023-04-07T00:20:07;5.40;;;3.87;;
15012;SDS011;7603;49.432;11.418;2023-04-07T00:22:33;7.90;;;4.97;;
15012;SDS011;7603;49.432;11.418;2023-04-07T00:24:58;4.60;;;4.13;;
15012;SDS011;7603;49.432;11.418;2023-04-07T00:27:24;6.10;;;3.63;;
15012;SDS011;7603;49.432;11.418;2023-04-07T00:29:50;4.53;;;4.17;;
15012;SDS011;7603;49.432;11.418;2023-04-07T00:32:18;9.27;;;5.20;;
15012;SDS011;7603;49.432;11.418;2023-04-07T00:34:44;4.53;;;4.10;;
15012;SDS011;7603;49.432;11.418;2023-04-07T00:37:09;9.17;;;5.00;;
15012;SDS011;7603;49.432;11.418;2023-04-07T00:39:35;8.63;;;4.33;;
15012;SDS011;7603;49.432;11.418;2023-04-07T00:42:02;5.00;;;4.00;;
15012;SDS011;7603;49.432;11.418;2023-04-07T00:44:28;5.23;;;4.53;;
15012;SDS011;7603;49.432;11.418;2023-04-07T00:46:54;8.43;;;3.97;;
15012;SDS011;7603;49.432;11.418;2023-04-07T00:49:19;5.13;;;4.63;;
15012;SDS011;7603;49.432;11.418;2023-04-07T00:51:45;11.90;;;4.33;;
15012;SDS011;7603;49.432;11.418;2023-04-07T00:54:11;5.63;;;3.77;;
15012;SDS011;7603;49.432;11.418;2023-04-07T00:56:36;5.20;;;4.80;;
15012;SDS011;7603;49.432;11.418;2023-04-07T00:59:05;4.77;;;4.47;;
15012;SDS011;7603;49.432;11.418;2023-04-07T01:01:33;7.87;;;3.27;;
15012;SDS011;7603;49.432;11.418;2023-04-07T01:04:08;4.57;;;3.80;;
15012;SDS011;7603;49.432;11.418;2023-04-07T01:06:43;6.33;;;3.70;;
15012;SDS011;7603;49.432;11.418;2023-04-07T01:09:15;5.63;;;4.77;;
15012;SDS011;7603;49.432;11.418;2023-04-07T01:14:41;7.67;;;4.80;;
15012;SDS011;7603;49.432;11.418;2023-04-07T01:17:14;4.67;;;4.03;;
15012;SDS011;7603;49.432;11.418;2023-04-07T01:22:28;4.97;;;3.57;;
15012;SDS011;7603;49.432;11.418;2023-04-07T01:30:19;5.97;;;3.73;;
15012;SDS011;7603;49.432;11.418;2023-04-07T01:32:49;5.60;;;3.93;;
15012;SDS011;7603;49.432;11.418;2023-04-07T01:35:16;5.73;;;3.93;;
15012;SDS011;7603;49.432;11.418;2023-04-07T01:37:43;8.40;;;4.43;;
15012;SDS011;7603;49.432;11.418;2023-04-07T01:40:12;4.23;;;3.83;;
15012;SDS011;7603;49.432;11.418;2023-04-07T01:42:38;5.33;;;3.57;;
15012;SDS011;7603;49.432;11.418;2023-04-07T01:45:05;8.23;;;4.77;;
15012;SDS011;7603;49.432;11.418;2023-04-07T01:47:32;6.37;;;5.73;;
15012;SDS011;7603;49.432;11.418;2023-04-07T01:50:01;7.73;;;4.40;;
15012;SDS011;7603;49.432;11.418;2023-04-07T01:52:33;8.37;;;5.10;;
15012;SDS011;7603;49.432;11.418;2023-04-07T01:55:00;6.20;;;4.20;;
15012;SDS011;7603;49.432;11.418;2023-04-07T01:57:29;6.07;;;5.37;;
15012;SDS011;7603;49.432;11.418;2023-04-07T01:59:55;5.87;;;4.63;;
15012;SDS011;7603;49.432;11.418;2023-04-07T02:02:21;4.67;;;4.00;;
15012;SDS011;7603;49.432;11.418;2023-04-07T02:09:59;7.73;;;5.07;;
15012;SDS011;7603;49.432;11.418;2023-04-07T02:12:27;7.73;;;5.63;;
15012;SDS011;7603;49.432;11.418;2023-04-07T02:14:55;7.67;;;5.50;;
15012;SDS011;7603;49.432;11.418;2023-04-07T02:17:24;8.50;;;5.00;;
15012;SDS011;7603;49.432;11.418;2023-04-07T02:19:52;6.60;;;4.60;;
15012;SDS011;7603;49.432;11.418;2023-04-07T02:22:19;7.10;;;4.83;;
15012;SDS011;7603;49.432;11.418;2023-04-07T02:24:45;9.03;;;5.57;;
15012;SDS011;7603;49.432;11.418;2023-04-07T02:27:11;7.83;;;4.83;;
15012;SDS011;7603;49.432;11.418;2023-04-07T02:29:37;7.47;;;5.67;;
15012;SDS011;7603;49.432;11.418;2023-04-07T02:32:02;5.40;;;4.47;;
15012;SDS011;7603;49.432;11.418;2023-04-07T02:34:29;33.77;;;11.17;;
15012;SDS011;7603;49.432;11.418;2023-04-07T02:36:55;14.03;;;6.53;;
15012;SDS011;7603;49.432;11.418;2023-04-07T02:39:20;10.43;;;6.03;;
15012;SDS011;7603;49.432;11.418;2023-04-07T02:41:46;5.37;;;4.67;;
15012;SDS011;7603;49.432;11.418;2023-04-07T02:44:11;7.73;;;4.83;;
15012;SDS011;7603;49.432;11.418;2023-04-07T02:46:37;5.03;;;4.30;;
15012;SDS011;7603;49.432;11.418;2023-04-07T02:49:02;4.63;;;4.17;;
15012;SDS011;7603;49.432;11.418;2023-04-07T02:51:28;7.37;;;5.50;;
15012;SDS011;7603;49.432;11.418;2023-04-07T02:53:53;5.93;;;5.20;;
15012;SDS011;7603;49.432;11.418;2023-04-07T02:56:19;6.73;;;4.37;;
15012;SDS011;7603;49.432;11.418;2023-04-07T02:58:45;5.63;;;4.33;;
15012;SDS011;7603;49.432;11.418;2023-04-07T03:01:10;10.30;;;4.93;;
15012;SDS011;7603;49.432;11.418;2023-04-07T03:03:36;5.13;;;4.53;;
15012;SDS011;7603;49.432;11.418;2023-04-07T03:06:03;4.77;;;4.07;;
15012;SDS011;7603;49.432;11.418;2023-04-07T03:08:29;5.40;;;3.57;;
15012;SDS011;7603;49.432;11.418;2023-04-07T03:10:55;5.90;;;3.90;;
15012;SDS011;7603;49.432;11.418;2023-04-07T03:13:20;7.40;;;4.20;;
15012;SDS011;7603;49.432;11.418;2023-04-07T03:15:46;7.30;;;3.70;;
15012;SDS011;7603;49.432;11.418;2023-04-07T03:18:12;5.13;;;3.93;;
15012;SDS011;7603;49.432;11.418;2023-04-07T03:20:37;4.90;;;3.57;;
15012;SDS011;7603;49.432;11.418;2023-04-07T03:23:05;5.57;;;4.57;;
15012;SDS011;7603;49.432;11.418;2023-04-07T03:25:31;6.67;;;3.73;;
15012;SDS011;7603;49.432;11.418;2023-04-07T03:27:57;9.63;;;4.33;;
15012;SDS011;7603;49.432;11.418;2023-04-07T03:30:22;4.80;;;3.77;;
15012;SDS011;7603;49.432;11.418;2023-04-07T03:32:49;6.23;;;4.30;;
15012;SDS011;7603;49.432;11.418;2023-04-07T03:35:15;5.47;;;4.07;;
15012;SDS011;7603;49.432;11.418;2023-04-07T03:37:40;6.53;;;4.27;;
15012;SDS011;7603;49.432;11.418;2023-04-07T03:40:06;4.90;;;4.23;;
15012;SDS011;7603;49.432;11.418;2023-04-07T03:42:32;5.73;;;4.00;;
15012;SDS011;7603;49.432;11.418;2023-04-07T03:44:57;4.23;;;3.37;;
15012;SDS011;7603;49.432;11.418;2023-04-07T03:47:23;5.97;;;4.10;;
15012;SDS011;7603;49.432;11.418;2023-04-07T03:49:49;4.50;;;4.10;;
15012;SDS011;7603;49.432;11.418;2023-04-07T03:52:14;9.60;;;5.83;;
15012;SDS011;7603;49.432;11.418;2023-04-07T03:54:40;5.70;;;3.87;;
15012;SDS011;7603;49.432;11.418;2023-04-07T03:57:06;6.07;;;4.97;;
15012;SDS011;7603;49.432;11.418;2023-04-07T03:59:32;6.23;;;4.43;;
15012;SDS011;7603;49.432;11.418;2023-04-07T04:01:57;7.33;;;3.63;;
15012;SDS011;7603;49.432;11.418;2023-04-07T04:04:23;5.17;;;4.30;;
15012;SDS011;7603;49.432;11.418;2023-04-07T04:06:49;5.83;;;5.33;;
15012;SDS011;7603;49.432;11.418;2023-04-07T04:09:15;6.17;;;3.77;;
15012;SDS011;7603;49.432;11.418;2023-04-07T04:11:40;4.47;;;4.07;;
15012;SDS011;7603;49.432;11.418;2023-04-07T04:14:06;7.60;;;5.13;;
15012;SDS011;7603;49.432;11.418;2023-04-07T04:16:32;6.00;;;4.77;;
15012;SDS011;7603;49.432;11.418;2023-04-07T04:18:59;5.60;;;4.67;;
15012;SDS011;7603;49.432;11.418;2023-04-07T04:21:25;5.20;;;4.17;;
15012;SDS011;7603;49.432;11.418;2023-04-07T04:23:51;8.83;;;4.90;;
15012;SDS011;7603;49.432;11.418;2023-04-07T04:26:17;6.30;;;5.63;;
15012;SDS011;7603;49.432;11.418;2023-04-07T04:28:43;5.63;;;5.17;;
15012;SDS011;7603;49.432;11.418;2023-04-07T04:31:08;7.97;;;4.47;;
15012;SDS011;7603;49.432;11.418;2023-04-07T04:33:34;5.00;;;4.60;;
15012;SDS011;7603;49.432;11.418;2023-04-07T04:36:00;5.00;;;4.47;;
15012;SDS011;7603;49.432;11.418;2023-04-07T04:38:25;10.97;;;4.83;;
15012;SDS011;7603;49.432;11.418;2023-04-07T04:40:51;6.37;;;5.17;;
15012;SDS011;7603;49.432;11.418;2023-04-07T04:43:16;6.03;;;5.23;;
15012;SDS011;7603;49.432;11.418;2023-04-07T04:45:42;7.13;;;5.73;;
15012;SDS011;7603;49.432;11.418;2023-04-07T04:48:07;6.47;;;5.43;;
15012;SDS011;7603;49.432;11.418;2023-04-07T04:50:34;6.13;;;4.10;;
15012;SDS011;7603;49.432;11.418;2023-04-07T04:53:00;6.80;;;5.10;;
15012;SDS011;7603;49.432;11.418;2023-04-07T04:55:26;7.13;;;5.40;;
15012;SDS011;7603;49.432;11.418;2023-04-07T04:57:52;11.13;;;4.47;;
15012;SDS011;7603;49.432;11.418;2023-04-07T05:00:18;12.90;;;7.13;;
15012;SDS011;7603;49.432;11.418;2023-04-07T05:02:44;6.43;;;4.13;;
15012;SDS011;7603;49.432;11.418;2023-04-07T05:05:10;12.73;;;5.80;;
15012;SDS011;7603;49.432;11.418;2023-04-07T05:07:36;8.63;;;5.07;;
15012;SDS011;7603;49.432;11.418;2023-04-07T05:10:04;7.03;;;4.50;;
15012;SDS011;7603;49.432;11.418;2023-04-07T05:12:31;8.73;;;4.90;;
15012;SDS011;7603;49.432;11.418;2023-04-07T05:14:57;6.27;;;5.50;;
15012;SDS011;7603;49.432;11.418;2023-04-07T05:17:22;9.10;;;5.67;;
15012;SDS011;7603;49.432;11.418;2023-04-07T05:19:48;8.60;;;5.93;;
15012;SDS011;7603;49.432;11.418;2023-04-07T05:22:13;9.17;;;4.97;;
15012;SDS011;7603;49.432;11.418;2023-04-07T05:24:39;11.37;;;5.67;;
15012;SDS011;7603;49.432;11.418;2023-04-07T05:27:05;7.87;;;6.40;;
15012;SDS011;7603;49.432;11.418;2023-04-07T05:29:30;6.90;;;4.03;;
15012;SDS011;7603;49.432;11.418;2023-04-07T05:31:56;9.33;;;5.77;;
15012;SDS011;7603;49.432;11.418;2023-04-07T05:34:21;8.47;;;6.37;;
15012;SDS011;7603;49.432;11.418;2023-04-07T05:36:47;7.40;;;5.50;;
15012;SDS011;7603;49.432;11.418;2023-04-07T05:39:12;8.70;;;5.30;;
15012;SDS011;7603;49.432;11.418;2023-04-07T05:41:38;10.67;;;6.57;;
15012;SDS011;7603;49.432;11.418;2023-04-07T05:44:04;5.97;;;5.37;;
15012;SDS011;7603;49.432;11.418;2023-04-07T05:46:30;13.27;;;5.30;;
15012;SDS011;7603;49.432;11.418;2023-04-07T05:48:56;15.07;;;6.00;;
15012;SDS011;7603;49.432;11.418;2023-04-07T05:51:21;12.20;;;5.60;;
15012;SDS011;7603;49.432;11.418;2023-04-07T05:53:47;5.47;;;4.87;;
15012;SDS011;7603;49.432;11.418;2023-04-07T05:56:12;8.97;;;5.93;;
15012;SDS011;7603;49.432;11.418;2023-04-07T05:58:38;6.53;;;5.13;;
15012;SDS011;7603;49.432;11.418;2023-04-07T06:01:03;8.83;;;5.33;;
15012;SDS011;7603;49.432;11.418;2023-04-07T06:03:29;7.27;;;5.53;;
15012;SDS011;7603;49.432;11.418;2023-04-07T06:05:56;10.77;;;6.37;;
15012;SDS011;7603;49.432;11.418;2023-04-07T06:08:22;8.63;;;4.30;;
15012;SDS011;7603;49.432;11.418;2023-04-07T06:10:48;6.57;;;5.27;;
15012;SDS011;7603;49.432;11.418;2023-04-07T06:13:13;11.37;;;4.57;;
15012;SDS011;7603;49.432;11.418;2023-04-07T06:15:39;8.00;;;6.00;;
15012;SDS011;7603;49.432;11.418;2023-04-07T06:18:05;12.07;;;6.13;;
15012;SDS011;7603;49.432;11.418;2023-04-07T06:20:30;21.90;;;12.40;;
15012;SDS011;7603;49.432;11.418;2023-04-07T06:22:56;20.97;;;9.67;;
15012;SDS011;7603;49.432;11.418;2023-04-07T06:25:21;24.63;;;11.23;;
15012;SDS011;7603;49.432;11.418;2023-04-07T06:27:47;24.93;;;7.50;;
15012;SDS011;7603;49.432;11.418;2023-04-07T06:30:13;9.53;;;7.40;;
15012;SDS011;7603;49.432;11.418;2023-04-07T06:32:38;9.35;;;7.45;;
15012;SDS011;7603;49.432;11.418;2023-04-07T06:35:04;14.43;;;7.55;;
15012;SDS011;7603;49.432;11.418;2023-04-07T06:37:30;11.25;;;7.15;;
15012;SDS011;7603;49.432;11.418;2023-04-07T06:39:56;10.05;;;7.68;;
15012;SDS011;7603;49.432;11.418;2023-04-07T06:42:21;8.55;;;6.10;;
15012;SDS011;7603;49.432;11.418;2023-04-07T06:44:47;11.30;;;6.07;;
15012;SDS011;7603;49.432;11.418;2023-04-07T06:47:12;9.77;;;6.53;;
15012;SDS011;7603;49.432;11.418;2023-04-07T06:49:38;8.70;;;6.68;;
15012;SDS011;7603;49.432;11.418;2023-04-07T06:52:04;11.80;;;6.40;;
15012;SDS011;7603;49.432;11.418;2023-04-07T06:54:30;10.10;;;7.00;;
15012;SDS011;7603;49.432;11.418;2023-04-07T06:56:55;12.15;;;7.10;;
15012;SDS011;7603;49.432;11.418;2023-04-07T06:59:21;10.45;;;5.65;;
15012;SDS011;7603;49.432;11.418;2023-04-07T07:01:47;6.00;;;5.25;;
15012;SDS011;7603;49.432;11.418;2023-04-07T07:04:13;5.43;;;4.20;;
15012;SDS011;7603;49.432;11.418;2023-04-07T07:06:38;7.50;;;5.10;;
15012;SDS011;7603;49.432;11.418;2023-04-07T07:09:04;10.48;;;5.05;;
15012;SDS011;7603;49.432;11.418;2023-04-07T07:11:30;5.35;;;4.88;;
15012;SDS011;7603;49.432;11.418;2023-04-07T07:13:55;6.00;;;5.17;;
15012;SDS011;7603;49.432;11.418;2023-04-07T07:16:21;7.68;;;5.88;;
15012;SDS011;7603;49.432;11.418;2023-04-07T07:18:48;4.13;;;3.72;;
15012;SDS011;7603;49.432;11.418;2023-04-07T07:21:15;8.97;;;6.70;;
15012;SDS011;7603;49.432;11.418;2023-04-07T07:23:42;5.35;;;4.57;;
15012;SDS011;7603;49.432;11.418;2023-04-07T07:26:07;5.57;;;4.47;;
15012;SDS011;7603;49.432;11.418;2023-04-07T07:28:33;5.38;;;4.05;;
15012;SDS011;7603;49.432;11.418;2023-04-07T07:30:58;4.57;;;3.97;;
15012;SDS011;7603;49.432;11.418;2023-04-07T07:33:24;8.02;;;5.05;;
15012;SDS011;7603;49.432;11.418;2023-04-07T07:35:50;5.63;;;4.57;;
15012;SDS011;7603;49.432;11.418;2023-04-07T07:38:15;6.47;;;4.50;;
15012;SDS011;7603;49.432;11.418;2023-04-07T07:40:41;4.32;;;3.45;;
15012;SDS011;7603;49.432;11.418;2023-04-07T07:43:07;5.13;;;4.60;;
15012;SDS011;7603;49.432;11.418;2023-04-07T07:45:32;5.15;;;3.92;;
15012;SDS011;7603;49.432;11.418;2023-04-07T07:47:58;4.00;;;3.50;;
15012;SDS011;7603;49.432;11.418;2023-04-07T07:50:23;5.00;;;4.20;;
15012;SDS011;7603;49.432;11.418;2023-04-07T07:52:49;5.53;;;4.38;;
15012;SDS011;7603;49.432;11.418;2023-04-07T07:55:15;5.88;;;5.32;;
15012;SDS011;7603;49.432;11.418;2023-04-07T07:57:40;4.70;;;4.15;;
15012;SDS011;7603;49.432;11.418;2023-04-07T08:00:06;4.90;;;3.80;;
15012;SDS011;7603;49.432;11.418;2023-04-07T08:02:33;7.00;;;4.13;;
15012;SDS011;7603;49.432;11.418;2023-04-07T08:05:00;8.38;;;5.60;;
15012;SDS011;7603;49.432;11.418;2023-04-07T08:07:25;6.17;;;4.87;;
15012;SDS011;7603;49.432;11.418;2023-04-07T08:09:51;4.30;;;3.90;;
15012;SDS011;7603;49.432;11.418;2023-04-07T08:12:17;9.35;;;4.95;;
15012;SDS011;7603;49.432;11.418;2023-04-07T08:14:42;6.53;;;4.85;;
15012;SDS011;7603;49.432;11.418;2023-04-07T08:17:08;7.72;;;4.28;;
15012;SDS011;7603;49.432;11.418;2023-04-07T08:19:34;8.25;;;4.93;;
15012;SDS011;7603;49.432;11.418;2023-04-07T08:22:00;5.22;;;4.07;;
15012;SDS011;7603;49.432;11.418;2023-04-07T08:24:26;6.65;;;4.25;;
15012;SDS011;7603;49.432;11.418;2023-04-07T08:26:52;5.30;;;4.20;;
15012;SDS011;7603;49.432;11.418;2023-04-07T08:29:18;8.33;;;6.17;;
15012;SDS011;7603;49.432;11.418;2023-04-07T08:31:43;5.10;;;3.95;;
15012;SDS011;7603;49.432;11.418;2023-04-07T08:34:09;5.97;;;3.30;;
15012;SDS011;7603;49.432;11.418;2023-04-07T08:36:35;5.65;;;4.22;;
15012;SDS011;7603;49.432;11.418;2023-04-07T08:39:00;7.50;;;4.30;;
15012;SDS011;7603;49.432;11.418;2023-04-07T08:41:38;4.90;;;4.05;;
15012;SDS011;7603;49.432;11.418;2023-04-07T08:44:05;4.78;;;3.92;;
15012;SDS011;7603;49.432;11.418;2023-04-07T08:46:33;4.90;;;3.67;;
15012;SDS011;7603;49.432;11.418;2023-04-07T08:48:59;4.63;;;3.83;;
15012;SDS011;7603;49.432;11.418;2023-04-07T08:51:27;7.55;;;5.47;;
15012;SDS011;7603;49.432;11.418;2023-04-07T08:54:11;5.10;;;4.03;;
15012;SDS011;7603;49.432;11.418;2023-04-07T08:56:46;4.85;;;4.10;;
15012;SDS011;7603;49.432;11.418;2023-04-07T08:59:13;4.93;;;3.58;;
15012;SDS011;7603;49.432;11.418;2023-04-07T09:01:39;5.20;;;4.22;;
15012;SDS011;7603;49.432;11.418;2023-04-07T09:04:06;4.90;;;4.32;;
15012;SDS011;7603;49.432;11.418;2023-04-07T09:06:33;6.13;;;5.53;;
15012;SDS011;7603;49.432;11.418;2023-04-07T09:09:00;5.60;;;5.07;;
15012;SDS011;7603;49.432;11.418;2023-04-07T09:11:26;4.93;;;4.50;;
15012;SDS011;7603;49.432;11.418;2023-04-07T09:13:53;4.70;;;4.10;;
15012;SDS011;7603;49.432;11.418;2023-04-07T09:16:19;4.55;;;3.97;;
15012;SDS011;7603;49.432;11.418;2023-04-07T09:18:46;4.22;;;3.85;;
15012;SDS011;7603;49.432;11.418;2023-04-07T09:21:11;5.88;;;4.38;;
15012;SDS011;7603;49.432;11.418;2023-04-07T09:23:38;5.20;;;4.70;;
15012;SDS011;7603;49.432;11.418;2023-04-07T09:28:44;4.60;;;4.15;;
15012;SDS011;7603;49.432;11.418;2023-04-07T09:31:11;6.38;;;4.80;;
15012;SDS011;7603;49.432;11.418;2023-04-07T09:33:37;7.03;;;5.93;;
15012;SDS011;7603;49.432;11.418;2023-04-07T09:36:03;5.30;;;4.70;;
15012;SDS011;7603;49.432;11.418;2023-04-07T09:38:37;4.88;;;4.47;;
15012;SDS011;7603;49.432;11.418;2023-04-07T09:41:04;5.43;;;4.90;;
15012;SDS011;7603;49.432;11.418;2023-04-07T09:43:41;6.15;;;5.32;;
15012;SDS011;7603;49.432;11.418;2023-04-07T09:46:13;5.20;;;4.30;;
15012;SDS011;7603;49.432;11.418;2023-04-07T09:48:41;5.22;;;4.72;;
15012;SDS011;7603;49.432;11.418;2023-04-07T09:51:13;5.50;;;4.93;;
15012;SDS011;7603;49.432;11.418;2023-04-07T09:56:17;5.83;;;5.30;;
15012;SDS011;7603;49.432;11.418;2023-04-07T09:58:46;5.25;;;4.75;;
15012;SDS011;7603;49.432;11.418;2023-04-07T10:01:13;5.50;;;4.90;;
15012;SDS011;7603;49.432;11.418;2023-04-07T10:03:43;5.05;;;4.65;;
15012;SDS011;7603;49.432;11.418;2023-04-07T10:06:11;6.40;;;4.95;;
15012;SDS011;7603;49.432;11.418;2023-04-07T10:08:38;5.22;;;4.82;;
15012;SDS011;7603;49.432;11.418;2023-04-07T10:11:05;4.88;;;4.47;;
15012;SDS011;7603;49.432;11.418;2023-04-07T10:13:32;6.00;;;5.40;;
15012;SDS011;7603;49.432;11.418;2023-04-07T10:16:01;5.43;;;4.93;;
15012;SDS011;7603;49.432;11.418;2023-04-07T10:18:30;4.75;;;4.35;;
15012;SDS011;7603;49.432;11.418;2023-04-07T10:21:01;4.85;;;4.38;;
15012;SDS011;7603;49.432;11.418;2023-04-07T10:26:14;4.78;;;4.28;;
15012;SDS011;7603;49.432;11.418;2023-04-07T10:28:43;5.07;;;4.65;;
15012;SDS011;7603;49.432;11.418;2023-04-07T10:31:12;6.50;;;4.70;;
15012;SDS011;7603;49.432;11.418;2023-04-07T10:36:10;4.20;;;3.90;;
15012;SDS011;7603;49.432;11.418;2023-04-07T10:38:36;4.20;;;3.80;;
15012;SDS011;7603;49.432;11.418;2023-04-07T10:43:55;5.18;;;4.75;;
15012;SDS011;7603;49.432;11.418;2023-04-07T10:46:21;4.50;;;4.18;;
15012;SDS011;7603;49.432;11.418;2023-04-07T10:49:08;5.38;;;4.88;;
15012;SDS011;7603;49.432;11.418;2023-04-07T10:51:33;4.55;;;4.25;;
15012;SDS011;7603;49.432;11.418;2023-04-07T10:59:31;4.22;;;3.92;;
15012;SDS011;7603;49.432;11.418;2023-04-07T11:04:39;4.72;;;4.35;;
15012;SDS011;7603;49.432;11.418;2023-04-07T11:07:10;14.90;;;10.45;;
15012;SDS011;7603;49.432;11.418;2023-04-07T11:09:37;4.38;;;3.97;;
15012;SDS011;7603;49.432;11.418;2023-04-07T11:12:02;5.15;;;4.18;;
15012;SDS011;7603;49.432;11.418;2023-04-07T11:14:29;4.05;;;3.80;;
15012;SDS011;7603;49.432;11.418;2023-04-07T11:16:56;4.88;;;4.43;;
15012;SDS011;7603;49.432;11.418;2023-04-07T11:19:23;4.30;;;4.00;;
15012;SDS011;7603;49.432;11.418;2023-04-07T11:21:49;9.05;;;4.57;;
15012;SDS011;7603;49.432;11.418;2023-04-07T11:24:33;5.47;;;4.85;;
15012;SDS011;7603;49.432;11.418;2023-04-07T11:27:01;4.55;;;4.15;;
15012;SDS011;7603;49.432;11.418;2023-04-07T11:29:28;4.20;;;3.78;;
15012;SDS011;7603;49.432;11.418;2023-04-07T11:31:54;9.95;;;3.95;;
15012;SDS011;7603;49.432;11.418;2023-04-07T11:34:33;6.43;;;4.85;;
15012;SDS011;7603;49.432;11.418;2023-04-07T11:39:54;12.15;;;8.35;;
15012;SDS011;7603;49.432;11.418;2023-04-07T11:42:30;14.02;;;8.18;;
15012;SDS011;7603;49.432;11.418;2023-04-07T11:45:00;83.95;;;33.83;;
15012;SDS011;7603;49.432;11.418;2023-04-07T11:47:39;12.93;;;9.50;;
15012;SDS011;7603;49.432;11.418;2023-04-07T11:50:05;27.98;;;14.65;;
15012;SDS011;7603;49.432;11.418;2023-04-07T11:55:19;16.13;;;9.70;;
15012;SDS011;7603;49.432;11.418;2023-04-07T11:57:46;4.63;;;4.22;;
15012;SDS011;7603;49.432;11.418;2023-04-07T12:00:13;4.53;;;4.13;;
15012;SDS011;7603;49.432;11.418;2023-04-07T12:02:39;4.53;;;3.90;;
15012;SDS011;7603;49.432;11.418;2023-04-07T12:05:05;281.02;;;86.93;;
15012;SDS011;7603;49.432;11.418;2023-04-07T12:07:34;180.23;;;70.97;;
15012;SDS011;7603;49.432;11.418;2023-04-07T12:10:19;86.85;;;42.67;;
15012;SDS011;7603;49.432;11.418;2023-04-07T12:12:45;33.05;;;14.30;;
15012;SDS011;7603;49.432;11.418;2023-04-07T12:15:12;13.02;;;8.52;;
15012;SDS011;7603;49.432;11.418;2023-04-07T12:17:42;13.73;;;8.18;;
15012;SDS011;7603;49.432;11.418;2023-04-07T12:20:09;19.90;;;6.18;;
15012;SDS011;7603;49.432;11.418;2023-04-07T12:22:35;6.60;;;4.75;;
15012;SDS011;7603;49.432;11.418;2023-04-07T12:25:01;3.40;;;2.90;;
15012;SDS011;7603;49.432;11.418;2023-04-07T12:27:27;4.15;;;3.75;;
15012;SDS011;7603;49.432;11.418;2023-04-07T12:29:52;3.40;;;3.10;;
15012;SDS011;7603;49.432;11.418;2023-04-07T12:32:18;3.33;;;3.10;;
15012;SDS011;7603;49.432;11.418;2023-04-07T12:34:43;4.95;;;3.50;;
15012;SDS011;7603;49.432;11.418;2023-04-07T12:37:09;3.70;;;3.35;;
15012;SDS011;7603;49.432;11.418;2023-04-07T12:39:34;3.45;;;3.13;;
15012;SDS011;7603;49.432;11.418;2023-04-07T12:42:00;4.35;;;3.30;;
15012;SDS011;7603;49.432;11.418;2023-04-07T12:44:26;4.20;;;3.80;;
15012;SDS011;7603;49.432;11.418;2023-04-07T12:46:51;5.45;;;3.28;;
15012;SDS011;7603;49.432;11.418;2023-04-07T12:49:17;4.07;;;3.77;;
15012;SDS011;7603;49.432;11.418;2023-04-07T12:51:43;3.33;;;3.03;;
15012;SDS011;7603;49.432;11.418;2023-04-07T12:54:08;3.72;;;3.42;;
15012;SDS011;7603;49.432;11.418;2023-04-07T12:56:34;3.22;;;2.95;;
15012;SDS011;7603;49.432;11.418;2023-04-07T12:59:00;2.93;;;2.73;;
15012;SDS011;7603;49.432;11.418;2023-04-07T13:01:26;3.38;;;3.08;;
15012;SDS011;7603;49.432;11.418;2023-04-07T13:03:51;3.45;;;3.15;;
15012;SDS011;7603;49.432;11.418;2023-04-07T13:06:17;3.00;;;2.80;;
15012;SDS011;7603;49.432;11.418;2023-04-07T13:08:43;3.13;;;2.75;;
15012;SDS011;7603;49.432;11.418;2023-04-07T13:11:08;3.75;;;3.45;;
15012;SDS011;7603;49.432;11.418;2023-04-07T13:13:34;3.15;;;2.85;;
15012;SDS011;7603;49.432;11.418;2023-04-07T13:16:00;2.78;;;2.58;;
15012;SDS011;7603;49.432;11.418;2023-04-07T13:18:26;4.38;;;3.67;;
15012;SDS011;7603;49.432;11.418;2023-04-07T13:20:52;3.40;;;3.10;;
15012;SDS011;7603;49.432;11.418;2023-04-07T13:23:17;3.55;;;2.90;;
15012;SDS011;7603;49.432;11.418;2023-04-07T13:25:43;3.15;;;2.85;;
15012;SDS011;7603;49.432;11.418;2023-04-07T13:28:09;4.78;;;4.32;;
15012;SDS011;7603;49.432;11.418;2023-04-07T13:30:35;4.03;;;3.42;;
15012;SDS011;7603;49.432;11.418;2023-04-07T13:33:01;5.87;;;3.87;;
15012;SDS011;7603;49.432;11.418;2023-04-07T13:35:26;3.70;;;3.22;;
15012;SDS011;7603;49.432;11.418;2023-04-07T13:37:54;3.22;;;2.92;;
15012;SDS011;7603;49.432;11.418;2023-04-07T13:40:40;2.80;;;2.60;;
15012;SDS011;7603;49.432;11.418;2023-04-07T13:43:08;4.22;;;3.33;;
15012;SDS011;7603;49.432;11.418;2023-04-07T13:45:36;3.95;;;2.88;;
15012;SDS011;7603;49.432;11.418;2023-04-07T13:48:01;3.78;;;3.35;;
15012;SDS011;7603;49.432;11.418;2023-04-07T13:50:27;4.35;;;2.80;;
15012;SDS011;7603;49.432;11.418;2023-04-07T13:52:53;4.63;;;3.13;;
15012;SDS011;7603;49.432;11.418;2023-04-07T13:55:19;4.63;;;3.40;;
15012;SDS011;7603;49.432;11.418;2023-04-07T13:57:44;3.95;;;3.15;;
15012;SDS011;7603;49.432;11.418;2023-04-07T14:00:10;11.40;;;4.88;;
15012;SDS011;7603;49.432;11.418;2023-04-07T14:02:36;4.13;;;3.38;;
15012;SDS011;7603;49.432;11.418;2023-04-07T14:05:02;5.57;;;4.07;;
15012;SDS011;7603;49.432;11.418;2023-04-07T14:07:28;3.40;;;2.67;;
15012;SDS011;7603;49.432;11.418;2023-04-07T14:09:53;3.80;;;3.25;;
15012;SDS011;7603;49.432;11.418;2023-04-07T14:12:19;3.73;;;3.43;;
15012;SDS011;7603;49.432;11.418;2023-04-07T14:14:46;5.88;;;3.20;;
15012;SDS011;7603;49.432;11.418;2023-04-07T14:17:14;4.25;;;3.30;;
15012;SDS011;7603;49.432;11.418;2023-04-07T14:19:40;3.35;;;2.83;;
15012;SDS011;7603;49.432;11.418;2023-04-07T14:22:06;3.22;;;3.03;;
15012;SDS011;7603;49.432;11.418;2023-04-07T14:24:31;4.78;;;3.75;;
15012;SDS011;7603;49.432;11.418;2023-04-07T14:26:57;4.32;;;3.10;;
15012;SDS011;7603;49.432;11.418;2023-04-07T14:29:22;3.28;;;2.97;;
15012;SDS011;7603;49.432;11.418;2023-04-07T14:31:48;4.30;;;3.13;;
15012;SDS011;7603;49.432;11.418;2023-04-07T14:34:15;3.42;;;2.83;;
15012;SDS011;7603;49.432;11.418;2023-04-07T14:36:42;7.03;;;3.45;;
15012;SDS011;7603;49.432;11.418;2023-04-07T14:39:17;2.85;;;2.65;;
15012;SDS011;7603;49.432;11.418;2023-04-07T14:41:43;4.50;;;4.10;;
15012;SDS011;7603;49.432;11.418;2023-04-07T14:44:11;3.33;;;2.90;;
15012;SDS011;7603;49.432;11.418;2023-04-07T14:46:37;3.15;;;2.83;;
15012;SDS011;7603;49.432;11.418;2023-04-07T14:49:03;2.95;;;2.75;;
15012;SDS011;7603;49.432;11.418;2023-04-07T14:51:28;3.78;;;2.50;;
15012;SDS011;7603;49.432;11.418;2023-04-07T14:53:54;3.10;;;2.80;;
15012;SDS011;7603;49.432;11.418;2023-04-07T14:56:21;3.40;;;3.00;;
15012;SDS011;7603;49.432;11.418;2023-04-07T14:58:48;3.08;;;2.88;;
15012;SDS011;7603;49.432;11.418;2023-04-07T15:01:14;3.17;;;2.88;;
15012;SDS011;7603;49.432;11.418;2023-04-07T15:03:40;3.40;;;3.15;;
15012;SDS011;7603;49.432;11.418;2023-04-07T15:06:10;3.78;;;3.22;;
15012;SDS011;7603;49.432;11.418;2023-04-07T15:08:37;3.30;;;3.10;;
15012;SDS011;7603;49.432;11.418;2023-04-07T15:11:04;3.15;;;2.90;;
15012;SDS011;7603;49.432;11.418;2023-04-07T15:13:31;3.15;;;2.95;;
15012;SDS011;7603;49.432;11.418;2023-04-07T15:16:04;3.17;;;2.97;;
15012;SDS011;7603;49.432;11.418;2023-04-07T15:18:38;3.63;;;3.33;;
15012;SDS011;7603;49.432;11.418;2023-04-07T15:21:06;3.40;;;2.70;;
15012;SDS011;7603;49.432;11.418;2023-04-07T15:23:32;3.13;;;2.92;;
15012;SDS011;7603;49.432;11.418;2023-04-07T15:25:58;3.10;;;2.80;;